Time;durP1;ratioP1;P1;durP2;ratioP2;P2;SDS_P1;SDS_P2;PMS_P1;PMS_P2;Temp;Humidity;BMP_temperature;BMP_pressure;BME280_temperature;BME280_humidity;BME280_pressure;Samples;Min_cycle;Max_cycle;Signal;HPM_P1;HPM_P2
2021/12/09 00:00:33;;;;;;;7.47;2.17;;;22.30;99.90;;;;;;5019898;28;20092;-73
2021/12/09 00:03:06;;;;;;;9.23;2.13;;;22.40;99.90;;;;;;5018169;28;20044;-71
2021/12/09 00:05:36;;;;;;;7.43;2.03;;;22.40;99.90;;;;;;5016747;28;20048;-71
2021/12/09 00:08:05;;;;;;;9.70;2.38;;;22.50;99.90;;;;;;5016517;28;20029;-72
2021/12/09 00:10:34;;;;;;;6.95;2.13;;;22.70;99.90;;;;;;5016667;28;20284;-71
2021/12/09 00:13:04;;;;;;;10.32;2.00;;;22.70;99.90;;;;;;5020016;28;20044;-71
2021/12/09 00:15:55;;;;;;;11.18;2.72;;;22.80;99.90;;;;;;5036497;28;20052;-71
2021/12/09 00:18:23;;;;;;;6.60;1.83;;;23.00;99.90;;;;;;5038189;28;20079;-72
2021/12/09 00:20:51;;;;;;;8.45;2.90;;;23.00;99.90;;;;;;5037902;28;20021;-71
2021/12/09 00:23:18;;;;;;;6.50;2.20;;;23.00;99.90;;;;;;5037655;28;20032;-72
2021/12/09 00:25:46;;;;;;;6.38;2.15;;;23.00;99.90;;;;;;5037400;28;20028;-70
2021/12/09 00:28:13;;;;;;;7.15;1.85;;;23.10;99.90;;;;;;5037386;28;20048;-70
2021/12/09 00:30:41;;;;;;;6.88;1.95;;;23.20;99.90;;;;;;5037180;28;20131;-72
2021/12/09 00:33:10;;;;;;;9.80;2.55;;;23.30;99.90;;;;;;5037492;28;20024;-72
2021/12/09 00:35:48;;;;;;;8.77;2.08;;;23.30;99.90;;;;;;5036957;28;20051;-72
2021/12/09 00:38:48;;;;;;;7.90;2.10;;;23.40;99.90;;;;;;5037523;28;20029;-72
2021/12/09 00:41:11;;;;;;;7.40;1.77;;;23.60;99.90;;;;;;5036178;28;20047;-71
2021/12/09 00:43:40;;;;;;;5.60;1.70;;;23.70;99.90;;;;;;5035933;28;20814;-71
2021/12/09 00:46:09;;;;;;;9.32;2.10;;;23.90;99.90;;;;;;5037328;28;20025;-71
2021/12/09 00:48:37;;;;;;;8.50;2.20;;;24.00;99.90;;;;;;5037321;28;20037;-68
2021/12/09 00:51:05;;;;;;;5.80;2.35;;;24.10;99.90;;;;;;5038086;28;20480;-71
2021/12/09 00:53:34;;;;;;;6.65;1.73;;;24.30;99.90;;;;;;5037548;28;20024;-70
2021/12/09 00:56:01;;;;;;;9.73;2.55;;;24.40;99.90;;;;;;5037749;28;20423;-70
2021/12/09 00:58:29;;;;;;;9.25;2.20;;;24.40;99.90;;;;;;5037954;28;20129;-70
2021/12/09 01:00:56;;;;;;;3.65;1.52;;;24.40;99.90;;;;;;5037111;28;20417;-70
2021/12/09 01:03:24;;;;;;;7.95;2.28;;;24.50;99.90;;;;;;5037160;28;20233;-71
2021/12/09 01:05:51;;;;;;;7.55;2.03;;;24.70;99.90;;;;;;5036776;28;20013;-72
2021/12/09 01:08:19;;;;;;;11.85;2.38;;;24.80;99.90;;;;;;5036758;28;20025;-70
2021/12/09 01:10:46;;;;;;;8.30;2.47;;;24.90;99.90;;;;;;5036761;28;20021;-73
2021/12/09 01:13:13;;;;;;;7.43;1.98;;;24.90;99.90;;;;;;5038499;28;20436;-73
2021/12/09 01:15:42;;;;;;;9.00;1.85;;;25.00;99.90;;;;;;5035094;28;20021;-74
2021/12/09 01:18:09;;;;;;;7.30;3.20;;;25.10;99.90;;;;;;5038226;28;20029;-71
2021/12/09 01:20:37;;;;;;;8.40;1.80;;;25.10;99.90;;;;;;5036140;28;20458;-71
2021/12/09 01:23:05;;;;;;;10.65;1.92;;;25.20;99.90;;;;;;5037676;28;20032;-72
2021/12/09 01:25:36;;;;;;;7.25;1.85;;;25.30;99.90;;;;;;5036489;28;20044;-71
2021/12/09 01:28:24;;;;;;;6.75;2.22;;;25.50;99.90;;;;;;5037108;28;20041;-70
2021/12/09 01:30:59;;;;;;;7.22;1.73;;;25.70;99.90;;;;;;5035645;28;20063;-70
2021/12/09 01:33:26;;;;;;;7.85;2.58;;;25.70;99.90;;;;;;5035827;28;20108;-74
2021/12/09 01:36:03;;;;;;;7.32;1.80;;;25.40;99.90;;;;;;5036140;28;20373;-72
2021/12/09 01:38:32;;;;;;;13.05;2.40;;;25.50;99.90;;;;;;5035989;28;20083;-72
2021/12/09 01:41:00;;;;;;;11.60;2.70;;;25.50;99.90;;;;;;5035692;28;20025;-72
2021/12/09 01:43:27;;;;;;;8.68;2.60;;;25.40;99.90;;;;;;5036963;28;20021;-75
2021/12/09 01:46:11;;;;;;;7.18;3.08;;;25.60;99.90;;;;;;5034595;28;20385;-73
2021/12/09 01:48:39;;;;;;;10.00;2.50;;;25.70;99.90;;;;;;5036775;28;20064;-73
2021/12/09 01:51:07;;;;;;;9.40;2.28;;;25.80;99.90;;;;;;5037060;28;20025;-72
2021/12/09 01:53:36;;;;;;;6.97;2.13;;;25.80;99.90;;;;;;5034586;28;20075;-71
2021/12/09 01:56:07;;;;;;;7.93;2.25;;;25.90;99.90;;;;;;5035749;28;20020;-73
2021/12/09 01:58:35;;;;;;;7.03;2.08;;;25.90;99.90;;;;;;5036129;28;20032;-73
2021/12/09 02:01:04;;;;;;;10.15;2.50;;;25.90;99.90;;;;;;5033981;28;20090;-73
2021/12/09 02:03:32;;;;;;;11.27;2.53;;;26.00;99.90;;;;;;5034840;28;20721;-73
2021/12/09 02:06:00;;;;;;;10.13;2.33;;;26.00;99.90;;;;;;5033483;28;20140;-72
2021/12/09 02:08:27;;;;;;;10.93;2.15;;;25.90;99.90;;;;;;5034268;28;20032;-73
2021/12/09 02:10:55;;;;;;;11.98;3.33;;;25.90;99.90;;;;;;5033674;28;20012;-73
2021/12/09 02:13:22;;;;;;;7.90;2.10;;;25.80;99.90;;;;;;5036299;28;20116;-71
2021/12/09 02:15:54;;;;;;;7.85;2.08;;;25.90;99.90;;;;;;5034196;28;20028;-72
2021/12/09 02:18:22;;;;;;;12.40;2.38;;;26.00;99.90;;;;;;5035477;28;20500;-73
2021/12/09 02:21:14;;;;;;;12.73;2.40;;;26.10;99.90;;;;;;5035003;28;20052;-73
2021/12/09 02:23:51;;;;;;;5.55;1.88;;;26.20;99.90;;;;;;5035887;28;20029;-72
2021/12/09 02:26:25;;;;;;;7.05;2.35;;;26.40;99.90;;;;;;5036786;28;20036;-75
2021/12/09 02:28:54;;;;;;;9.23;2.50;;;26.30;99.90;;;;;;5033985;28;20036;-73
2021/12/09 02:31:22;;;;;;;10.90;2.63;;;26.30;99.90;;;;;;5036537;28;20052;-73
2021/12/09 02:33:50;;;;;;;12.02;2.70;;;26.40;99.90;;;;;;5034959;28;20018;-72
2021/12/09 02:36:17;;;;;;;11.75;2.83;;;26.50;99.90;;;;;;5036994;28;20066;-72
2021/12/09 02:38:46;;;;;;;11.13;2.67;;;26.60;99.90;;;;;;5035907;28;20025;-73
2021/12/09 02:41:18;;;;;;;9.80;2.13;;;26.70;99.90;;;;;;5036059;28;20033;-73
2021/12/09 02:43:52;;;;;;;11.15;3.13;;;26.80;99.90;;;;;;5036026;28;20083;-74
2021/12/09 02:46:20;;;;;;;9.98;2.42;;;26.90;99.90;;;;;;5041471;28;20021;-72
2021/12/09 02:48:47;;;;;;;7.63;2.17;;;26.80;99.90;;;;;;5039874;28;20047;-73
2021/12/09 02:51:15;;;;;;;7.72;3.05;;;27.00;99.90;;;;;;5039749;28;20032;-73
2021/12/09 02:53:42;;;;;;;14.30;2.72;;;27.20;99.90;;;;;;5039593;28;20466;-72
2021/12/09 02:56:11;;;;;;;8.75;2.38;;;27.20;99.80;;;;;;5039348;28;20021;-74
2021/12/09 02:58:39;;;;;;;8.88;2.80;;;27.20;99.70;;;;;;5040869;28;20052;-73
2021/12/09 03:01:23;;;;;;;13.93;2.63;;;27.30;99.40;;;;;;5039150;28;20039;-73
2021/12/09 03:03:55;;;;;;;10.95;2.75;;;27.30;99.30;;;;;;5039687;28;20028;-74
2021/12/09 03:06:35;;;;;;;10.30;3.08;;;27.60;99.40;;;;;;5040619;28;20013;-73
2021/12/09 03:09:13;;;;;;;7.93;2.15;;;27.60;98.40;;;;;;5038293;28;20124;-73
2021/12/09 03:11:42;;;;;;;12.50;2.20;;;27.50;98.30;;;;;;5040155;28;20044;-73
2021/12/09 03:14:10;;;;;;;13.93;3.00;;;27.30;98.60;;;;;;5039291;28;20025;-73
2021/12/09 03:16:39;;;;;;;8.60;2.17;;;27.10;99.00;;;;;;5040683;28;20126;-75
2021/12/09 03:19:09;;;;;;;11.77;2.72;;;26.90;99.30;;;;;;5039550;28;20052;-73
2021/12/09 03:21:43;;;;;;;11.90;2.83;;;27.00;99.20;;;;;;5039853;28;20032;-73
2021/12/09 03:24:14;;;;;;;8.75;2.83;;;27.50;98.40;;;;;;5039143;28;20401;-71
2021/12/09 03:26:48;;;;;;;6.70;1.90;;;28.00;97.90;;;;;;5040564;28;20025;-71
2021/12/09 03:29:18;;;;;;;10.00;2.50;;;28.70;96.40;;;;;;5039050;28;20473;-72
2021/12/09 03:31:48;;;;;;;8.48;2.65;;;28.90;95.70;;;;;;5039364;28;20082;-72
2021/12/09 03:34:17;;;;;;;11.55;2.13;;;29.30;95.30;;;;;;5038919;28;20112;-73
2021/12/09 03:36:47;;;;;;;20.25;3.03;;;29.20;94.40;;;;;;5039354;28;20098;-71
2021/12/09 03:39:18;;;;;;;11.90;2.72;;;28.70;95.10;;;;;;5038978;28;20017;-71
2021/12/09 03:41:51;;;;;;;14.73;3.40;;;28.10;95.70;;;;;;5039183;28;20029;-71
2021/12/09 03:44:20;;;;;;;10.82;2.08;;;27.70;96.70;;;;;;5038268;28;20028;-70
2021/12/09 03:46:50;;;;;;;11.57;2.75;;;27.40;97.00;;;;;;5038880;28;20028;-72
2021/12/09 03:49:17;;;;;;;10.63;2.40;;;26.90;97.60;;;;;;5036856;28;20037;-71
2021/12/09 03:51:45;;;;;;;10.70;2.95;;;26.50;98.40;;;;;;5039259;28;20049;-71
2021/12/09 03:54:12;;;;;;;9.95;2.53;;;26.10;98.90;;;;;;5038895;28;20055;-71
2021/12/09 03:56:40;;;;;;;9.35;2.38;;;25.80;99.80;;;;;;5038148;28;20079;-70
2021/12/09 03:59:10;;;;;;;10.38;2.60;;;25.60;99.90;;;;;;5037645;28;20054;-72
2021/12/09 04:01:40;;;;;;;13.00;2.55;;;25.80;99.90;;;;;;5038248;28;20021;-69
2021/12/09 04:04:08;;;;;;;13.27;2.63;;;26.10;99.80;;;;;;5037388;28;20079;-71
2021/12/09 04:06:36;;;;;;;11.27;2.75;;;26.30;99.70;;;;;;5037868;28;20036;-72
2021/12/09 04:09:07;;;;;;;11.18;2.40;;;26.70;99.60;;;;;;5037897;28;20048;-72
2021/12/09 04:11:34;;;;;;;5.20;2.00;;;27.50;98.30;;;;;;5038900;28;20071;-70
2021/12/09 04:14:02;;;;;;;12.23;2.67;;;28.20;96.90;;;;;;5036599;28;20025;-73
2021/12/09 04:16:30;;;;;;;11.15;2.13;;;28.70;96.30;;;;;;5037036;28;20025;-72
2021/12/09 04:18:58;;;;;;;7.78;2.47;;;29.00;94.80;;;;;;5036710;28;20029;-70
2021/12/09 04:21:26;;;;;;;8.50;2.53;;;29.30;93.80;;;;;;5038226;28;20021;-70
2021/12/09 04:23:53;;;;;;;10.38;2.25;;;29.70;92.80;;;;;;5036667;28;20021;-70
2021/12/09 04:26:21;;;;;;;11.05;2.58;;;29.40;93.50;;;;;;5037702;28;20017;-70
2021/12/09 04:28:49;;;;;;;7.57;1.98;;;29.20;94.40;;;;;;5037374;28;20489;-71
2021/12/09 04:31:17;;;;;;;13.73;2.17;;;29.20;93.90;;;;;;5030468;28;20056;-71
2021/12/09 04:33:45;;;;;;;8.20;3.22;;;29.20;93.80;;;;;;5032438;28;20035;-69
2021/12/09 04:36:12;;;;;;;5.10;1.85;;;29.60;93.70;;;;;;5031952;28;20017;-71
2021/12/09 04:38:40;;;;;;;10.10;2.30;;;29.60;92.80;;;;;;5033489;28;20059;-73
2021/12/09 04:41:07;;;;;;;6.90;1.65;;;29.50;93.20;;;;;;5032309;28;20490;-70
2021/12/09 04:43:35;;;;;;;8.85;1.95;;;29.70;92.60;;;;;;5033359;28;20063;-70
2021/12/09 04:46:02;;;;;;;5.35;1.27;;;29.60;92.20;;;;;;5031953;28;20021;-69
2021/12/09 04:48:30;;;;;;;5.45;1.67;;;29.40;92.40;;;;;;5033044;28;20041;-71
2021/12/09 04:50:57;;;;;;;8.35;1.67;;;28.80;92.70;;;;;;5031867;28;20938;-70
2021/12/09 04:53:25;;;;;;;7.20;2.03;;;28.30;94.20;;;;;;5032592;28;20032;-71
2021/12/09 04:56:04;;;;;;;9.00;2.38;;;28.30;94.30;;;;;;5032952;28;20108;-72
2021/12/09 04:58:31;;;;;;;6.22;1.95;;;28.60;94.70;;;;;;5032887;28;20238;-72
2021/12/09 05:01:00;;;;;;;10.60;2.15;;;28.70;94.20;;;;;;5031684;28;20045;-69
2021/12/09 05:03:28;;;;;;;7.20;1.90;;;28.70;94.00;;;;;;5032502;28;20023;-70
2021/12/09 05:05:56;;;;;;;7.38;1.75;;;28.60;94.20;;;;;;5032825;28;20058;-71
2021/12/09 05:08:27;;;;;;;8.80;2.20;;;28.60;93.90;;;;;;5031908;28;20040;-73
2021/12/09 05:11:09;;;;;;;6.93;1.77;;;28.00;93.90;;;;;;5032641;28;20481;-70
2021/12/09 05:13:39;;;;;;;6.70;2.17;;;27.70;94.70;;;;;;5032624;28;20048;-72
2021/12/09 05:16:10;;;;;;;5.82;1.80;;;28.00;94.20;;;;;;5031822;28;20043;-70
2021/12/09 05:18:40;;;;;;;4.78;1.58;;;28.10;94.70;;;;;;5032432;28;20055;-69
2021/12/09 05:21:09;;;;;;;6.80;1.50;;;28.10;94.50;;;;;;5030577;28;20025;-70
2021/12/09 05:23:36;;;;;;;8.18;1.95;;;28.10;94.50;;;;;;5031285;28;20037;-69
2021/12/09 05:26:05;;;;;;;7.95;1.77;;;27.80;94.50;;;;;;5029972;28;20013;-69
2021/12/09 05:28:36;;;;;;;7.10;1.60;;;27.30;95.00;;;;;;5031910;28;20509;-72
2021/12/09 05:33:52;;;;;;;7.75;2.53;;;26.00;97.00;;;;;;5032134;28;20097;-70
2021/12/09 05:36:20;;;;;;;8.82;3.20;;;25.50;97.90;;;;;;5034272;28;20021;-69
2021/12/09 05:38:47;;;;;;;13.70;4.53;;;25.00;98.90;;;;;;5036015;28;20025;-68
2021/12/09 05:41:15;;;;;;;6.68;2.28;;;24.60;99.90;;;;;;5035868;28;20021;-69
2021/12/09 05:43:43;;;;;;;8.23;3.00;;;24.30;99.90;;;;;;5035832;28;20024;-73
2021/12/09 05:46:11;;;;;;;6.43;2.20;;;24.00;99.90;;;;;;5035224;28;20048;-70
2021/12/09 05:48:41;;;;;;;8.60;2.25;;;23.80;99.90;;;;;;5036245;28;20037;-71
2021/12/09 05:51:08;;;;;;;9.55;2.38;;;23.50;99.90;;;;;;5035252;28;20025;-71
2021/12/09 05:53:35;;;;;;;8.10;2.35;;;23.30;99.90;;;;;;5035519;28;20035;-70
2021/12/09 05:56:03;;;;;;;10.95;2.80;;;23.10;99.90;;;;;;5035650;28;20020;-69
2021/12/09 05:58:31;;;;;;;18.88;3.85;;;23.10;99.90;;;;;;5036863;28;20017;-72
2021/12/09 06:00:58;;;;;;;14.82;4.35;;;22.90;99.90;;;;;;5035171;28;20465;-71
2021/12/09 06:03:26;;;;;;;9.68;2.65;;;22.80;99.90;;;;;;5037079;28;20049;-73
2021/12/09 06:05:53;;;;;;;14.45;4.13;;;22.80;99.90;;;;;;5036555;28;20035;-75
2021/12/09 06:08:21;;;;;;;15.43;3.53;;;22.60;99.90;;;;;;5035776;28;20569;-74
2021/12/09 06:10:48;;;;;;;8.23;3.20;;;22.50;99.90;;;;;;5037118;28;20155;-73
2021/12/09 06:13:16;;;;;;;10.13;3.55;;;22.40;99.90;;;;;;5035096;28;20029;-72
2021/12/09 06:15:44;;;;;;;7.85;2.80;;;22.50;99.90;;;;;;5036301;28;20035;-73
2021/12/09 06:18:12;;;;;;;10.70;3.33;;;22.60;99.90;;;;;;5035235;28;20691;-75
2021/12/09 06:20:39;;;;;;;9.40;3.25;;;22.50;99.90;;;;;;5036395;28;20470;-79
2021/12/09 06:23:06;;;;;;;6.45;2.78;;;22.50;99.90;;;;;;5037112;28;20014;-73
2021/12/09 06:25:34;;;;;;;6.65;2.33;;;22.40;99.90;;;;;;5035378;28;20056;-73
2021/12/09 06:28:01;;;;;;;5.75;2.30;;;22.60;99.90;;;;;;5036165;28;20049;-73
2021/12/09 06:30:31;;;;;;;6.95;3.15;;;22.60;99.90;;;;;;5035088;28;20053;-72
2021/12/09 06:32:58;;;;;;;8.02;2.38;;;22.70;99.90;;;;;;5037289;28;20090;-73
2021/12/09 06:35:29;;;;;;;6.60;2.65;;;22.70;99.90;;;;;;5035313;28;20074;-76
2021/12/09 06:37:57;;;;;;;8.85;2.05;;;22.70;99.90;;;;;;5036944;28;20021;-73
2021/12/09 06:40:24;;;;;;;9.07;2.78;;;22.60;99.90;;;;;;5034906;28;20478;-72
2021/12/09 06:42:54;;;;;;;8.00;2.78;;;22.50;99.90;;;;;;5025590;28;20028;-72
2021/12/09 06:45:23;;;;;;;8.10;2.58;;;22.40;99.90;;;;;;5028437;28;20108;-72
2021/12/09 06:47:53;;;;;;;7.88;3.13;;;22.20;99.90;;;;;;5030877;28;20028;-71
2021/12/09 06:50:25;;;;;;;7.95;2.20;;;22.00;99.90;;;;;;5030313;28;20041;-71
2021/12/09 06:52:52;;;;;;;12.77;2.22;;;21.80;99.90;;;;;;5031987;28;20025;-71
2021/12/09 06:55:21;;;;;;;6.20;2.40;;;21.60;99.90;;;;;;5029463;28;20425;-73
2021/12/09 06:57:50;;;;;;;7.35;2.30;;;21.50;99.90;;;;;;5031768;28;20389;-73
2021/12/09 07:00:25;;;;;;;8.98;3.88;;;21.50;99.90;;;;;;5031016;28;20028;-74
2021/12/09 07:02:54;;;;;;;9.55;2.55;;;21.50;99.90;;;;;;5031235;28;20060;-71
2021/12/09 07:05:23;;;;;;;5.57;1.75;;;21.40;99.90;;;;;;5030174;28;20033;-73
2021/12/09 07:07:51;;;;;;;7.78;2.63;;;21.30;99.90;;;;;;5033891;28;20040;-72
2021/12/09 07:10:20;;;;;;;9.30;2.50;;;21.30;99.90;;;;;;5031013;28;20549;-73
2021/12/09 07:12:48;;;;;;;11.02;3.33;;;21.30;99.90;;;;;;5025824;28;20025;-73
2021/12/09 07:15:17;;;;;;;9.63;3.80;;;21.30;99.90;;;;;;5030162;28;20032;-72
2021/12/09 07:17:45;;;;;;;6.03;2.55;;;21.20;99.90;;;;;;5030222;28;20032;-71
2021/12/09 07:20:17;;;;;;;6.07;2.22;;;21.30;99.90;;;;;;5030430;28;20033;-71
2021/12/09 07:22:45;;;;;;;;;;;21.20;99.90;;;;;;5031045;28;20037;-71
2021/12/09 07:25:13;;;;;;;10.38;2.65;;;21.10;99.90;;;;;;5031681;28;20157;-74
2021/12/09 07:27:40;;;;;;;9.30;3.53;;;21.10;99.90;;;;;;5028857;28;20048;-71
2021/12/09 07:30:09;;;;;;;7.78;2.80;;;21.20;99.90;;;;;;5031121;28;20044;-70
2021/12/09 07:32:37;;;;;;;9.90;3.20;;;21.20;99.90;;;;;;5032728;28;20056;-71
2021/12/09 07:35:07;;;;;;;8.38;2.95;;;21.20;99.90;;;;;;5029344;28;20040;-70
2021/12/09 07:37:37;;;;;;;10.27;3.47;;;21.10;99.90;;;;;;5028476;28;20459;-71
2021/12/09 07:40:06;;;;;;;15.18;3.00;;;21.10;99.90;;;;;;5029067;28;20039;-70
2021/12/09 07:42:34;;;;;;;8.75;3.28;;;21.10;99.90;;;;;;5029929;28;20032;-70
2021/12/09 07:45:01;;;;;;;7.45;2.70;;;21.10;99.90;;;;;;5026995;28;20032;-72
2021/12/09 07:47:29;;;;;;;7.45;2.67;;;21.10;99.90;;;;;;5027537;28;20226;-73
2021/12/09 07:49:56;;;;;;;10.40;3.58;;;21.10;99.90;;;;;;5027936;28;20044;-72
2021/12/09 07:52:23;;;;;;;11.50;3.13;;;21.00;99.90;;;;;;5029383;28;20052;-73
2021/12/09 07:54:51;;;;;;;7.57;3.38;;;20.90;99.90;;;;;;5028192;28;20025;-73
2021/12/09 07:57:18;;;;;;;10.20;3.78;;;21.10;99.90;;;;;;5029338;28;20825;-73
2021/12/09 07:59:45;;;;;;;12.10;4.13;;;20.90;99.90;;;;;;5027373;28;20024;-73
2021/12/09 08:02:12;;;;;;;10.75;3.38;;;20.90;99.90;;;;;;5029906;28;20029;-73
2021/12/09 08:04:40;;;;;;;12.82;3.63;;;20.80;99.90;;;;;;5027081;28;20052;-71
2021/12/09 08:07:07;;;;;;;7.45;3.60;;;20.70;99.90;;;;;;5028974;28;20029;-71
2021/12/09 08:09:36;;;;;;;12.48;5.28;;;20.70;99.90;;;;;;5029061;28;20041;-73
2021/12/09 08:12:04;;;;;;;12.70;4.28;;;20.70;99.90;;;;;;5026687;28;20656;-74
2021/12/09 08:14:31;;;;;;;8.70;3.60;;;20.80;99.90;;;;;;5028370;28;20103;-74
2021/12/09 08:17:22;;;;;;;9.85;4.13;;;20.80;99.90;;;;;;5028164;28;20025;-73
2021/12/09 08:19:50;;;;;;;11.23;3.80;;;20.70;99.90;;;;;;5028127;28;20232;-73
2021/12/09 08:22:18;;;;;;;12.85;3.88;;;20.70;99.90;;;;;;5028494;28;20037;-73
2021/12/09 08:24:46;;;;;;;12.45;5.32;;;20.70;99.90;;;;;;5027517;28;20039;-72
2021/12/09 08:27:14;;;;;;;11.85;4.70;;;20.70;99.90;;;;;;5028794;28;20068;-72
2021/12/09 08:29:41;;;;;;;14.77;4.13;;;20.70;99.90;;;;;;5028691;28;20112;-72
2021/12/09 08:32:08;;;;;;;14.23;4.20;;;20.70;99.90;;;;;;5027111;28;20036;-71
2021/12/09 08:34:36;;;;;;;12.73;5.20;;;20.50;99.90;;;;;;5029126;28;20036;-71
2021/12/09 08:37:03;;;;;;;9.95;4.25;;;20.50;99.90;;;;;;5027822;28;20076;-72
2021/12/09 08:39:30;;;;;;;12.77;4.00;;;20.50;99.90;;;;;;5029399;28;20025;-72
2021/12/09 08:41:58;;;;;;;12.35;4.43;;;20.50;99.90;;;;;;5027487;28;20099;-71
2021/12/09 08:44:25;;;;;;;13.98;4.35;;;20.50;99.90;;;;;;5028864;28;20033;-70
2021/12/09 08:46:52;;;;;;;11.73;4.50;;;20.40;99.90;;;;;;5024903;28;20029;-71
2021/12/09 08:49:20;;;;;;;14.75;4.80;;;20.40;99.90;;;;;;5028832;28;20041;-71
2021/12/09 08:51:48;;;;;;;11.43;5.18;;;20.40;99.90;;;;;;5027857;28;20021;-71
2021/12/09 08:54:16;;;;;;;11.77;4.45;;;20.40;99.90;;;;;;5027895;28;20120;-72
2021/12/09 08:56:50;;;;;;;12.02;4.90;;;20.30;99.90;;;;;;5028867;28;20116;-72
2021/12/09 08:59:19;;;;;;;11.25;3.83;;;20.30;99.90;;;;;;5028244;28;20036;-71
2021/12/09 09:01:46;;;;;;;11.15;3.67;;;20.30;99.90;;;;;;5028310;28;20025;-71
2021/12/09 09:04:14;;;;;;;9.88;4.15;;;20.30;99.90;;;;;;5027311;28;20029;-72
2021/12/09 09:06:53;;;;;;;12.38;5.07;;;20.30;99.90;;;;;;5028007;28;20108;-72
2021/12/09 09:09:21;;;;;;;11.73;3.67;;;20.30;99.90;;;;;;5029244;28;20032;-69
2021/12/09 09:11:48;;;;;;;16.08;4.30;;;20.20;99.90;;;;;;5028602;28;20068;-71
2021/12/09 09:14:15;;;;;;;10.50;3.28;;;20.20;99.90;;;;;;5027207;28;20191;-72
2021/12/09 09:16:43;;;;;;;11.57;3.05;;;20.10;99.90;;;;;;5028437;28;20025;-72
2021/12/09 09:19:13;;;;;;;8.50;3.17;;;20.00;99.90;;;;;;5026187;28;20120;-71
2021/12/09 09:21:42;;;;;;;9.38;3.63;;;20.00;99.90;;;;;;5028328;28;20021;-73
2021/12/09 09:24:10;;;;;;;12.98;4.25;;;20.00;99.90;;;;;;5025904;28;20639;-72
2021/12/09 09:26:38;;;;;;;13.73;4.38;;;20.00;99.90;;;;;;5028542;28;20082;-72
2021/12/09 09:29:06;;;;;;;17.63;6.40;;;20.00;99.90;;;;;;5028205;28;20706;-72
2021/12/09 09:31:34;;;;;;;11.95;4.85;;;19.90;99.90;;;;;;5026260;28;20044;-70
2021/12/09 09:34:03;;;;;;;15.63;4.15;;;19.80;99.90;;;;;;5026837;28;20033;-72
2021/12/09 09:36:39;;;;;;;12.15;4.72;;;19.80;99.90;;;;;;5025966;28;20213;-71
2021/12/09 09:39:16;;;;;;;12.57;5.28;;;19.80;99.90;;;;;;5027572;28;20029;-72
2021/12/09 09:42:16;;;;;;;12.20;5.43;;;19.80;99.90;;;;;;5027791;28;20029;-71
2021/12/09 09:44:57;;;;;;;14.60;5.97;;;19.90;99.90;;;;;;5027126;28;20521;-72
2021/12/09 09:47:27;;;;;;;12.93;5.65;;;20.00;99.90;;;;;;5026301;28;20036;-70
2021/12/09 09:49:56;;;;;;;12.98;5.15;;;20.00;99.90;;;;;;5028648;28;21400;-71
2021/12/09 09:52:23;;;;;;;12.45;4.72;;;20.00;99.90;;;;;;5026957;28;20025;-71
2021/12/09 09:54:53;;;;;;;11.10;4.65;;;20.10;99.90;;;;;;5026575;28;20044;-71
2021/12/09 09:57:20;;;;;;;14.68;5.93;;;20.00;99.90;;;;;;5026077;28;20473;-72
2021/12/09 09:59:48;;;;;;;16.15;5.50;;;20.00;99.90;;;;;;5027874;28;20090;-70
2021/12/09 10:02:16;;;;;;;10.63;4.40;;;20.00;99.90;;;;;;5026551;28;20033;-72
2021/12/09 10:04:47;;;;;;;16.27;4.43;;;20.10;99.90;;;;;;5026791;28;20049;-72
2021/12/09 10:07:18;;;;;;;12.50;4.60;;;20.10;99.90;;;;;;5027678;28;20025;-69
2021/12/09 10:09:47;;;;;;;9.68;5.03;;;20.10;99.90;;;;;;5027022;28;20106;-71
2021/12/09 10:12:16;;;;;;;12.02;4.97;;;20.20;99.90;;;;;;5025473;28;20397;-71
2021/12/09 10:14:51;;;;;;;11.88;5.90;;;20.20;99.90;;;;;;5026283;28;20528;-69
2021/12/09 10:17:26;;;;;;;10.88;4.70;;;20.20;99.90;;;;;;5027280;28;20021;-71
2021/12/09 10:20:07;;;;;;;15.20;4.45;;;20.20;99.90;;;;;;5025112;28;20036;-69
2021/12/09 10:22:36;;;;;;;13.30;4.63;;;20.20;99.90;;;;;;5025131;28;20033;-69
2021/12/09 10:25:18;;;;;;;12.40;4.05;;;20.30;99.90;;;;;;5027173;28;20036;-70
2021/12/09 10:27:55;;;;;;;10.97;4.37;;;20.30;99.90;;;;;;5025568;28;20045;-71
2021/12/09 10:30:24;;;;;;;6.85;3.38;;;20.30;99.90;;;;;;5026522;28;20033;-71
2021/12/09 10:33:03;;;;;;;14.45;3.90;;;20.20;99.90;;;;;;5029562;28;20090;-71
2021/12/09 10:35:31;;;;;;;10.15;3.63;;;20.20;99.90;;;;;;5031467;28;20159;-69
2021/12/09 10:38:01;;;;;;;9.43;3.80;;;20.20;99.90;;;;;;5031594;28;20025;-70
2021/12/09 10:40:30;;;;;;;10.68;3.55;;;20.20;99.90;;;;;;5035234;28;20021;-71
2021/12/09 10:43:01;;;;;;;12.52;3.65;;;20.00;99.90;;;;;;5035470;28;20025;-70
2021/12/09 10:45:35;;;;;;;14.77;4.05;;;20.00;99.90;;;;;;5035255;28;20080;-71
2021/12/09 10:48:21;;;;;;;13.82;3.65;;;20.00;99.90;;;;;;5036322;28;20424;-71
2021/12/09 10:51:12;;;;;;;10.75;3.55;;;20.00;99.90;;;;;;5034719;28;20021;-70
2021/12/09 10:53:47;;;;;;;9.68;3.97;;;20.00;99.90;;;;;;5034193;28;20024;-69
2021/12/09 10:56:25;;;;;;;9.43;3.33;;;20.00;99.90;;;;;;5033024;28;20036;-70
2021/12/09 10:58:52;;;;;;;8.10;3.72;;;19.80;99.90;;;;;;5034222;28;20021;-69
2021/12/09 11:01:23;;;;;;;9.75;3.50;;;19.90;99.90;;;;;;5035851;28;20029;-70
2021/12/09 11:03:57;;;;;;;7.55;3.42;;;19.80;99.90;;;;;;5034897;28;20021;-69
2021/12/09 11:06:47;;;;;;;7.93;3.40;;;19.80;99.90;;;;;;5038956;28;20107;-70
2021/12/09 11:09:15;;;;;;;7.88;3.10;;;19.80;99.90;;;;;;5038683;28;20036;-71
2021/12/09 11:11:48;;;;;;;6.70;3.67;;;19.80;99.90;;;;;;5039444;28;20021;-70
2021/12/09 11:14:17;;;;;;;9.10;2.80;;;19.80;99.90;;;;;;5040103;28;20062;-72
2021/12/09 11:16:50;;;;;;;10.10;3.72;;;19.70;99.90;;;;;;5038767;28;20029;-71
2021/12/09 11:22:00;;;;;;;8.13;3.90;;;19.70;99.90;;;;;;5037572;28;20024;-70
2021/12/09 11:24:32;;;;;;;7.60;3.35;;;19.80;99.90;;;;;;5038637;28;20533;-71
2021/12/09 11:27:03;;;;;;;7.70;3.53;;;19.70;99.90;;;;;;5033857;28;20770;-71
2021/12/09 11:29:42;;;;;;;6.22;3.25;;;19.80;99.90;;;;;;5038274;28;20883;-70
2021/12/09 11:34:59;;;;;;;6.68;3.15;;;19.70;99.90;;;;;;5037747;28;20095;-71
2021/12/09 11:40:19;;;;;;;7.97;3.10;;;19.70;99.90;;;;;;5037597;28;20255;-71
2021/12/09 11:42:54;;;;;;;6.60;3.30;;;19.70;99.90;;;;;;5039338;28;20049;-71
2021/12/09 11:45:29;;;;;;;9.38;3.35;;;19.70;99.90;;;;;;5039159;28;20492;-70
2021/12/09 11:47:57;;;;;;;8.80;3.40;;;19.70;99.90;;;;;;5038176;28;20013;-71
2021/12/09 11:50:34;;;;;;;6.18;3.40;;;19.70;99.90;;;;;;5039183;28;20071;-70
2021/12/09 11:53:04;;;;;;;7.72;3.63;;;19.80;99.90;;;;;;5038162;28;20025;-71
2021/12/09 11:55:41;;;;;;;7.30;3.20;;;19.70;99.90;;;;;;5039371;28;20032;-70
2021/12/09 11:58:30;;;;;;;7.40;3.97;;;19.70;99.90;;;;;;5038214;28;20036;-69
2021/12/09 12:07:09;;;;;;;6.82;2.60;;;19.60;99.90;;;;;;5039092;28;20066;-71
2021/12/09 12:13:01;;;;;;;6.70;3.25;;;19.60;99.90;;;;;;5038769;28;20044;-71
2021/12/09 12:15:44;;;;;;;6.40;2.78;;;19.60;99.90;;;;;;5038639;28;20094;-70
2021/12/09 12:24:15;;;;;;;6.60;2.70;;;19.70;99.90;;;;;;5037358;28;20036;-71
2021/12/09 12:33:14;;;;;;;6.72;3.08;;;19.70;99.90;;;;;;5037656;28;20071;-73
2021/12/09 12:36:04;;;;;;;5.55;3.17;;;19.70;99.90;;;;;;5037949;28;20104;-72
2021/12/09 12:38:48;;;;;;;6.97;2.72;;;19.70;99.90;;;;;;5038425;28;20117;-72
2021/12/09 12:41:17;;;;;;;6.63;4.00;;;19.70;99.90;;;;;;5037334;28;20525;-72
2021/12/09 12:43:56;;;;;;;7.40;3.70;;;19.70;99.90;;;;;;5037810;28;20036;-73
2021/12/09 12:46:53;;;;;;;6.43;3.67;;;19.70;99.90;;;;;;5038698;28;20020;-74
2021/12/09 12:52:09;;;;;;;12.57;5.28;;;19.50;99.90;;;;;;5037959;28;21139;-72
2021/12/09 12:54:55;;;;;;;9.48;5.30;;;19.30;99.90;;;;;;5036468;28;20061;-71
2021/12/09 12:57:30;;;;;;;8.50;4.65;;;19.20;99.90;;;;;;5038177;28;20036;-72
2021/12/09 13:00:25;;;;;;;11.93;5.63;;;19.10;99.90;;;;;;5037925;28;20114;-72
2021/12/09 13:14:04;;;;;;;9.77;5.97;;;19.00;99.90;;;;;;5038497;28;20047;-72
2021/12/09 13:19:22;;;;;;;10.70;5.22;;;19.00;99.90;;;;;;5038022;28;20033;-72
2021/12/09 13:21:59;;;;;;;11.07;5.78;;;19.00;99.90;;;;;;5037498;28;20644;-72
2021/12/09 13:35:22;;;;;;;8.80;3.65;;;18.90;99.90;;;;;;5037225;28;20036;-70
2021/12/09 13:38:15;;;;;;;7.20;3.42;;;18.90;99.90;;;;;;5037334;28;20025;-72
2021/12/09 13:49:48;;;;;;;6.88;2.63;;;18.90;99.90;;;;;;5035885;28;20047;-71
2021/12/09 13:55:24;;;;;;;5.68;3.15;;;18.80;99.90;;;;;;5038091;28;20122;-72
2021/12/09 13:57:56;;;;;;;9.75;3.88;;;18.80;99.90;;;;;;5037200;28;20019;-71
2021/12/09 14:00:27;;;;;;;7.70;3.28;;;18.90;99.90;;;;;;5036705;28;20036;-73
2021/12/09 14:02:57;;;;;;;13.55;4.63;;;18.80;99.90;;;;;;5037255;28;20024;-72
2021/12/09 14:05:26;;;;;;;10.55;4.20;;;18.80;99.90;;;;;;5036537;28;20100;-72
2021/12/09 14:08:02;;;;;;;10.55;5.03;;;18.80;99.90;;;;;;5035139;28;20021;-72
2021/12/09 14:10:33;;;;;;;5.63;1.77;;;18.70;99.90;;;;;;5035638;28;20036;-72
2021/12/09 14:13:05;;;;;;;2.92;1.67;;;18.40;99.90;;;;;;5036870;28;20048;-72